TUI2EM EDDM-LGRP
Flight info
| Callsign | TUI2EM |
|---|---|
| Flight time | N/A |
| Altitude | 35000 |
| Route | TURBU6E/08R TURBU Y107 TOBSO DCT BAKOR DCT MOBDO DCT PEVAL DCT UNIPA DCT BARIT DCT POD DCT ENFAR DCT TALAS UN130 MES UN139 LURUS UL995 USINI L995 CODIC |
| Aircraft | B738/M-SDE2E3FGHIRWXY/LB1 |
Departure
| Time | 2026-05-06 14:30 |
|---|---|
| Airport | Munich Airport (EDDM) |
Arrival
| Time | N/A |
|---|---|
| Airport | Rhodes International Airport "Diagoras" (LGRP) |
| Time | Latitude | Longitude | Altitude | Speed | Heading |
|---|---|---|---|---|---|
| 2026-05-06 14:01 | 48.35227 | 11.78339 | 1484 ft | 0 kts | 83° |
| 2026-05-06 14:17 | 48.35226 | 11.78303 | 1484 ft | 4 kts | 92° |
| 2026-05-06 14:17 | 48.35227 | 11.78263 | 1484 ft | 4 kts | 86° |
| 2026-05-06 14:17 | 48.35224 | 11.78230 | 1484 ft | 4 kts | 71° |
| 2026-05-06 14:18 | 48.35211 | 11.78199 | 1484 ft | 4 kts | 29° |
| 2026-05-06 14:18 | 48.35186 | 11.78189 | 1484 ft | 4 kts | 355° |
| 2026-05-06 14:18 | 48.35161 | 11.78193 | 1484 ft | 4 kts | 353° |
| 2026-05-06 14:18 | 48.35151 | 11.78195 | 1484 ft | 0 kts | 353° |
| 2026-05-06 14:20 | 48.35156 | 11.78194 | 1484 ft | 3 kts | 350° |
| 2026-05-06 14:21 | 48.35188 | 11.78164 | 1484 ft | 7 kts | 309° |
| 2026-05-06 14:21 | 48.35197 | 11.78083 | 1484 ft | 8 kts | 267° |
| 2026-05-06 14:21 | 48.35189 | 11.78000 | 1484 ft | 8 kts | 261° |
| 2026-05-06 14:21 | 48.35185 | 11.77918 | 1484 ft | 8 kts | 262° |
| 2026-05-06 14:22 | 48.35154 | 11.77859 | 1484 ft | 7 kts | 201° |
| 2026-05-06 14:22 | 48.35103 | 11.77845 | 1484 ft | 8 kts | 190° |
| 2026-05-06 14:22 | 48.35047 | 11.77838 | 1484 ft | 9 kts | 180° |
| 2026-05-06 14:22 | 48.34977 | 11.77847 | 1484 ft | 11 kts | 172° |
| 2026-05-06 14:23 | 48.34895 | 11.77863 | 1484 ft | 12 kts | 174° |
| 2026-05-06 14:23 | 48.34807 | 11.77876 | 1484 ft | 13 kts | 173° |
| 2026-05-06 14:23 | 48.34718 | 11.77891 | 1484 ft | 13 kts | 173° |
| 2026-05-06 14:23 | 48.34658 | 11.77816 | 1484 ft | 13 kts | 260° |
| 2026-05-06 14:24 | 48.34646 | 11.77677 | 1484 ft | 14 kts | 263° |
| 2026-05-06 14:24 | 48.34635 | 11.77530 | 1484 ft | 15 kts | 263° |
| 2026-05-06 14:24 | 48.34622 | 11.77360 | 1484 ft | 18 kts | 263° |
| 2026-05-06 14:24 | 48.34606 | 11.77162 | 1484 ft | 20 kts | 264° |
| 2026-05-06 14:25 | 48.34591 | 11.76948 | 1484 ft | 22 kts | 263° |
| 2026-05-06 14:25 | 48.34573 | 11.76720 | 1484 ft | 22 kts | 263° |
| 2026-05-06 14:25 | 48.34554 | 11.76492 | 1484 ft | 22 kts | 263° |
| 2026-05-06 14:25 | 48.34538 | 11.76271 | 1484 ft | 21 kts | 263° |
| 2026-05-06 14:26 | 48.34522 | 11.76056 | 1484 ft | 20 kts | 263° |
| 2026-05-06 14:26 | 48.34506 | 11.75847 | 1484 ft | 20 kts | 263° |
| 2026-05-06 14:26 | 48.34490 | 11.75646 | 1484 ft | 19 kts | 263° |
| 2026-05-06 14:26 | 48.34475 | 11.75450 | 1484 ft | 18 kts | 263° |
| 2026-05-06 14:27 | 48.34463 | 11.75296 | 1484 ft | 10 kts | 263° |
| 2026-05-06 14:27 | 48.34425 | 11.75222 | 1484 ft | 10 kts | 194° |
| 2026-05-06 14:27 | 48.34356 | 11.75226 | 1484 ft | 10 kts | 174° |
| 2026-05-06 14:27 | 48.34281 | 11.75241 | 1484 ft | 12 kts | 173° |
| 2026-05-06 14:28 | 48.34189 | 11.75257 | 1484 ft | 14 kts | 173° |
| 2026-05-06 14:28 | 48.34116 | 11.75284 | 1484 ft | 8 kts | 147° |
| 2026-05-06 14:28 | 48.34089 | 11.75357 | 1484 ft | 8 kts | 95° |
| 2026-05-06 14:28 | 48.34091 | 11.75391 | 1484 ft | 0 kts | 85° |
| 2026-05-06 14:29 | 48.34100 | 11.75515 | 1484 ft | 44 kts | 83° |
| 2026-05-06 14:29 | 48.34168 | 11.76399 | 1484 ft | 123 kts | 83° |
| 2026-05-06 14:29 | 48.34298 | 11.78021 | 1493 ft | 187 kts | 83° |
| 2026-05-06 14:29 | 48.34471 | 11.80155 | 1918 ft | 216 kts | 82° |
| 2026-05-06 14:30 | 48.34657 | 11.82499 | 2392 ft | 241 kts | 85° |
| 2026-05-06 14:30 | 48.34829 | 11.85171 | 2657 ft | 272 kts | 84° |
| 2026-05-06 14:30 | 48.35040 | 11.88101 | 3194 ft | 288 kts | 84° |
| 2026-05-06 14:30 | 48.35267 | 11.91055 | 4233 ft | 273 kts | 83° |
| 2026-05-06 14:31 | 48.35372 | 11.93714 | 5549 ft | 250 kts | 98° |
| 2026-05-06 14:31 | 48.34732 | 11.96161 | 6202 ft | 254 kts | 127° |
| 2026-05-06 14:31 | 48.33494 | 11.98102 | 6825 ft | 261 kts | 141° |
| 2026-05-06 14:31 | 48.32061 | 11.99786 | 7655 ft | 262 kts | 143° |
| 2026-05-06 14:32 | 48.30621 | 12.01428 | 8426 ft | 264 kts | 144° |
| 2026-05-06 14:32 | 48.28939 | 12.02632 | 9105 ft | 270 kts | 169° |
| 2026-05-06 14:32 | 48.27030 | 12.02763 | 9449 ft | 288 kts | 185° |
| 2026-05-06 14:32 | 48.25000 | 12.02472 | 10030 ft | 296 kts | 186° |
| 2026-05-06 14:33 | 48.22910 | 12.02118 | 10398 ft | 313 kts | 187° |
| 2026-05-06 14:33 | 48.20663 | 12.01733 | 10567 ft | 335 kts | 187° |
| 2026-05-06 14:33 | 48.18285 | 12.01336 | 10753 ft | 353 kts | 186° |
| 2026-05-06 14:33 | 48.15808 | 12.00937 | 11196 ft | 361 kts | 186° |
| 2026-05-06 14:34 | 48.13296 | 12.00542 | 11786 ft | 364 kts | 186° |
| 2026-05-06 14:34 | 48.10763 | 12.00151 | 12369 ft | 367 kts | 186° |
| 2026-05-06 14:34 | 48.08213 | 11.99763 | 12902 ft | 370 kts | 186° |
| 2026-05-06 14:34 | 48.05639 | 11.99373 | 13407 ft | 374 kts | 186° |
| 2026-05-06 14:35 | 48.03042 | 11.98982 | 13906 ft | 377 kts | 186° |
| 2026-05-06 14:35 | 48.00428 | 11.98589 | 14431 ft | 379 kts | 186° |
| 2026-05-06 14:35 | 47.97795 | 11.98193 | 14863 ft | 382 kts | 186° |
| 2026-05-06 14:35 | 47.95168 | 11.97799 | 15260 ft | 386 kts | 186° |
| 2026-05-06 14:36 | 47.92474 | 11.97394 | 15675 ft | 389 kts | 186° |
| 2026-05-06 14:36 | 47.89774 | 11.96990 | 16083 ft | 392 kts | 186° |
| 2026-05-06 14:36 | 47.87045 | 11.96581 | 16478 ft | 395 kts | 186° |
| 2026-05-06 14:36 | 47.84307 | 11.96172 | 16851 ft | 397 kts | 186° |
| 2026-05-06 14:37 | 47.81547 | 11.95759 | 17208 ft | 400 kts | 186° |
| 2026-05-06 14:37 | 47.78769 | 11.95345 | 17550 ft | 402 kts | 186° |
| 2026-05-06 14:37 | 47.75975 | 11.94929 | 17880 ft | 405 kts | 186° |
| 2026-05-06 14:37 | 47.73163 | 11.94517 | 18197 ft | 407 kts | 185° |
| 2026-05-06 14:38 | 47.70322 | 11.94332 | 18500 ft | 409 kts | 181° |
| 2026-05-06 14:38 | 47.67459 | 11.94289 | 18792 ft | 412 kts | 180° |
| 2026-05-06 14:38 | 47.64581 | 11.94285 | 19071 ft | 414 kts | 180° |
| 2026-05-06 14:38 | 47.61696 | 11.94276 | 19344 ft | 416 kts | 180° |
| 2026-05-06 14:39 | 47.58832 | 11.94252 | 19610 ft | 418 kts | 180° |
| 2026-05-06 14:39 | 47.55917 | 11.94214 | 19869 ft | 420 kts | 181° |
| 2026-05-06 14:39 | 47.52990 | 11.94167 | 20115 ft | 422 kts | 181° |
| 2026-05-06 14:39 | 47.50048 | 11.94117 | 20348 ft | 424 kts | 181° |
| 2026-05-06 14:40 | 47.47095 | 11.94066 | 20576 ft | 425 kts | 181° |
| 2026-05-06 14:40 | 47.44124 | 11.94016 | 20793 ft | 427 kts | 181° |
| 2026-05-06 14:40 | 47.42159 | 11.93914 | 20889 ft | 429 kts | 185° |
| 2026-05-06 14:40 | 47.39178 | 11.93423 | 21005 ft | 432 kts | 188° |
| 2026-05-06 14:41 | 47.36202 | 11.92796 | 21285 ft | 431 kts | 188° |
| 2026-05-06 14:41 | 47.33230 | 11.92141 | 21657 ft | 428 kts | 188° |
| 2026-05-06 14:41 | 47.30283 | 11.91503 | 21807 ft | 431 kts | 188° |
| 2026-05-06 14:41 | 47.27283 | 11.90875 | 21859 ft | 436 kts | 188° |
| 2026-05-06 14:42 | 47.24271 | 11.90264 | 22002 ft | 438 kts | 188° |
| 2026-05-06 14:42 | 47.21252 | 11.89663 | 22195 ft | 438 kts | 188° |
| 2026-05-06 14:42 | 47.18222 | 11.89066 | 22372 ft | 439 kts | 188° |
| 2026-05-06 14:42 | 47.15183 | 11.88469 | 22431 ft | 442 kts | 188° |
| 2026-05-06 14:43 | 47.12134 | 11.87870 | 22501 ft | 445 kts | 188° |
| 2026-05-06 14:43 | 47.09050 | 11.87264 | 22653 ft | 445 kts | 188° |
| 2026-05-06 14:43 | 47.06019 | 11.86668 | 22760 ft | 447 kts | 188° |
| 2026-05-06 14:43 | 47.02935 | 11.86063 | 22890 ft | 447 kts | 188° |
| 2026-05-06 14:44 | 46.99861 | 11.85346 | 23038 ft | 447 kts | 191° |
| 2026-05-06 14:44 | 46.96817 | 11.84416 | 23229 ft | 446 kts | 192° |
| 2026-05-06 14:44 | 46.93790 | 11.83419 | 23410 ft | 446 kts | 193° |
| 2026-05-06 14:45 | 46.87730 | 11.81408 | 23631 ft | 448 kts | 193° |
| 2026-05-06 14:45 | 46.84684 | 11.80420 | 23727 ft | 449 kts | 192° |
| 2026-05-06 14:45 | 46.81629 | 11.79444 | 23834 ft | 450 kts | 192° |
| 2026-05-06 14:45 | 46.78554 | 11.78469 | 23936 ft | 450 kts | 192° |
| 2026-05-06 14:46 | 46.75487 | 11.77500 | 24031 ft | 451 kts | 192° |
| 2026-05-06 14:46 | 46.72453 | 11.76542 | 24122 ft | 452 kts | 192° |
| 2026-05-06 14:46 | 46.69375 | 11.75571 | 24205 ft | 453 kts | 192° |
| 2026-05-06 14:46 | 46.66252 | 11.74587 | 24296 ft | 454 kts | 192° |
| 2026-05-06 14:47 | 46.63182 | 11.73857 | 24422 ft | 453 kts | 184° |
| 2026-05-06 14:47 | 46.60060 | 11.73888 | 24793 ft | 446 kts | 175° |
| 2026-05-06 14:47 | 46.57011 | 11.74551 | 25130 ft | 441 kts | 166° |
| 2026-05-06 14:47 | 46.54080 | 11.75835 | 25394 ft | 439 kts | 162° |
| 2026-05-06 14:48 | 46.51165 | 11.77228 | 25392 ft | 442 kts | 162° |
| 2026-05-06 14:48 | 46.48225 | 11.78594 | 25446 ft | 444 kts | 163° |
| 2026-05-06 14:48 | 46.45280 | 11.79959 | 25564 ft | 444 kts | 160° |
| 2026-05-06 14:48 | 46.42473 | 11.81848 | 25671 ft | 445 kts | 150° |
| 2026-05-06 14:49 | 46.39901 | 11.84348 | 25781 ft | 446 kts | 141° |
| 2026-05-06 14:49 | 46.37587 | 11.87334 | 25905 ft | 445 kts | 137° |
| 2026-05-06 14:49 | 46.35315 | 11.90385 | 26007 ft | 446 kts | 137° |
| 2026-05-06 14:49 | 46.33041 | 11.93454 | 26017 ft | 449 kts | 137° |
| 2026-05-06 14:50 | 46.30746 | 11.96539 | 26034 ft | 451 kts | 137° |
| 2026-05-06 14:50 | 46.28435 | 11.99624 | 26054 ft | 453 kts | 137° |
| 2026-05-06 14:50 | 46.26100 | 12.02719 | 26068 ft | 455 kts | 138° |
| 2026-05-06 14:50 | 46.23755 | 12.05814 | 26079 ft | 457 kts | 138° |
| 2026-05-06 14:51 | 46.21398 | 12.08911 | 26094 ft | 459 kts | 138° |
| 2026-05-06 14:51 | 46.19064 | 12.11973 | 26106 ft | 460 kts | 138° |
| 2026-05-06 14:51 | 46.16690 | 12.15083 | 26120 ft | 461 kts | 138° |
| 2026-05-06 14:51 | 46.14306 | 12.18202 | 26129 ft | 463 kts | 138° |
| 2026-05-06 14:52 | 46.11915 | 12.21327 | 26138 ft | 464 kts | 138° |
| 2026-05-06 14:52 | 46.09526 | 12.24446 | 26146 ft | 465 kts | 138° |
| 2026-05-06 14:52 | 46.07126 | 12.27576 | 26154 ft | 466 kts | 138° |
| 2026-05-06 14:52 | 46.04715 | 12.30716 | 26159 ft | 467 kts | 138° |
| 2026-05-06 14:53 | 46.02302 | 12.33855 | 26168 ft | 467 kts | 138° |
| 2026-05-06 14:53 | 45.99887 | 12.36993 | 26174 ft | 468 kts | 138° |
| 2026-05-06 14:53 | 45.97494 | 12.40099 | 26177 ft | 469 kts | 138° |
| 2026-05-06 14:53 | 45.95037 | 12.43283 | 26181 ft | 470 kts | 138° |
| 2026-05-06 14:54 | 45.92639 | 12.46387 | 26184 ft | 470 kts | 138° |
| 2026-05-06 14:54 | 45.90208 | 12.49531 | 26186 ft | 470 kts | 138° |
| 2026-05-06 14:54 | 45.87774 | 12.52674 | 26190 ft | 471 kts | 138° |
| 2026-05-06 14:54 | 45.85333 | 12.55822 | 26228 ft | 470 kts | 138° |
| 2026-05-06 14:55 | 45.82919 | 12.58932 | 26455 ft | 464 kts | 138° |
| 2026-05-06 14:55 | 45.80528 | 12.62009 | 26694 ft | 459 kts | 138° |
| 2026-05-06 14:55 | 45.78159 | 12.65053 | 26924 ft | 455 kts | 138° |
| 2026-05-06 14:55 | 45.75796 | 12.68087 | 26923 ft | 457 kts | 138° |
| 2026-05-06 14:56 | 45.73420 | 12.71132 | 26939 ft | 459 kts | 138° |
| 2026-05-06 14:56 | 45.71039 | 12.74182 | 26949 ft | 460 kts | 138° |
| 2026-05-06 14:56 | 45.68649 | 12.77238 | 26958 ft | 461 kts | 139° |
| 2026-05-06 14:56 | 45.66253 | 12.80299 | 26966 ft | 462 kts | 139° |
| 2026-05-06 14:57 | 45.63851 | 12.83364 | 26973 ft | 463 kts | 139° |
| 2026-05-06 14:57 | 45.61443 | 12.86433 | 26979 ft | 464 kts | 139° |
| 2026-05-06 14:57 | 45.59033 | 12.89501 | 27067 ft | 463 kts | 139° |
| 2026-05-06 14:57 | 45.56643 | 12.92539 | 27299 ft | 458 kts | 139° |
| 2026-05-06 14:58 | 45.54270 | 12.95554 | 27395 ft | 457 kts | 139° |
| 2026-05-06 14:58 | 45.51899 | 12.98561 | 27581 ft | 453 kts | 139° |
| 2026-05-06 14:58 | 45.49547 | 13.01541 | 27811 ft | 449 kts | 139° |
| 2026-05-06 14:58 | 45.47215 | 13.04493 | 27983 ft | 447 kts | 139° |
| 2026-05-06 14:59 | 45.44931 | 13.07380 | 28265 ft | 442 kts | 139° |
| 2026-05-06 14:59 | 45.42614 | 13.10306 | 28531 ft | 438 kts | 139° |
| 2026-05-06 14:59 | 45.40369 | 13.13138 | 28795 ft | 434 kts | 139° |
| 2026-05-06 14:59 | 45.38119 | 13.15975 | 29060 ft | 430 kts | 139° |
| 2026-05-06 15:00 | 45.35870 | 13.18805 | 29085 ft | 434 kts | 139° |
| 2026-05-06 15:00 | 45.33613 | 13.21643 | 29192 ft | 433 kts | 139° |
| 2026-05-06 15:00 | 45.31495 | 13.24673 | 29445 ft | 430 kts | 130° |
| 2026-05-06 15:00 | 45.29757 | 13.28106 | 29684 ft | 427 kts | 120° |
| 2026-05-06 15:01 | 45.28334 | 13.31813 | 29773 ft | 429 kts | 118° |
| 2026-05-06 15:01 | 45.26971 | 13.35523 | 30109 ft | 422 kts | 117° |
| 2026-05-06 15:01 | 45.25617 | 13.39236 | 30108 ft | 425 kts | 118° |
| 2026-05-06 15:02 | 45.22852 | 13.46718 | 30165 ft | 431 kts | 118° |
| 2026-05-06 15:02 | 45.20021 | 13.54265 | 30211 ft | 436 kts | 118° |
| 2026-05-06 15:03 | 45.17145 | 13.61874 | 30249 ft | 440 kts | 118° |
| 2026-05-06 15:03 | 45.14238 | 13.69535 | 30283 ft | 444 kts | 118° |
| 2026-05-06 15:04 | 45.11295 | 13.77269 | 30315 ft | 447 kts | 118° |
| 2026-05-06 15:04 | 45.08331 | 13.85041 | 30342 ft | 450 kts | 118° |
| 2026-05-06 15:05 | 45.05359 | 13.92811 | 30362 ft | 453 kts | 118° |
| 2026-05-06 15:05 | 45.02349 | 14.00657 | 30379 ft | 455 kts | 118° |
| 2026-05-06 15:06 | 44.99320 | 14.08533 | 30397 ft | 457 kts | 119° |
| 2026-05-06 15:06 | 44.96269 | 14.16441 | 30412 ft | 459 kts | 119° |
| 2026-05-06 15:07 | 44.93204 | 14.24365 | 30424 ft | 460 kts | 119° |
| 2026-05-06 15:07 | 44.90123 | 14.32306 | 30434 ft | 461 kts | 119° |
| 2026-05-06 15:08 | 44.87053 | 14.40197 | 30445 ft | 463 kts | 119° |
| 2026-05-06 15:08 | 44.83943 | 14.48169 | 30450 ft | 463 kts | 119° |
| 2026-05-06 15:09 | 44.80825 | 14.56137 | 30456 ft | 464 kts | 119° |
| 2026-05-06 15:09 | 44.77701 | 14.64098 | 30483 ft | 464 kts | 119° |
| 2026-05-06 15:09 | 44.76146 | 14.68052 | 30748 ft | 457 kts | 119° |
| 2026-05-06 15:10 | 44.74628 | 14.71907 | 30892 ft | 455 kts | 119° |
| 2026-05-06 15:10 | 44.71569 | 14.79659 | 30996 ft | 453 kts | 119° |
| 2026-05-06 15:11 | 44.68499 | 14.87416 | 31007 ft | 455 kts | 119° |
| 2026-05-06 15:11 | 44.65416 | 14.95185 | 31006 ft | 456 kts | 119° |
| 2026-05-06 15:12 | 44.62318 | 15.02970 | 31005 ft | 457 kts | 120° |
| 2026-05-06 15:12 | 44.59209 | 15.10763 | 31003 ft | 458 kts | 120° |
| 2026-05-06 15:13 | 44.58476 | 15.12596 | 31003 ft | 458 kts | 120° |
| 2026-05-06 15:13 | 44.56674 | 15.17099 | 30999 ft | 459 kts | 120° |
| 2026-05-06 15:14 | 44.53563 | 15.24858 | 30999 ft | 459 kts | 120° |
| 2026-05-06 15:14 | 44.50419 | 15.32674 | 31001 ft | 460 kts | 120° |
| 2026-05-06 15:15 | 44.47278 | 15.40463 | 31001 ft | 460 kts | 120° |
| 2026-05-06 15:15 | 44.44124 | 15.48263 | 31001 ft | 460 kts | 120° |
| 2026-05-06 15:16 | 44.40966 | 15.56052 | 31001 ft | 461 kts | 120° |
| 2026-05-06 15:16 | 44.37793 | 15.63856 | 31002 ft | 461 kts | 120° |
| 2026-05-06 15:17 | 44.34618 | 15.71644 | 31001 ft | 461 kts | 120° |
| 2026-05-06 15:17 | 44.31454 | 15.79383 | 31001 ft | 461 kts | 120° |
| 2026-05-06 15:18 | 44.28265 | 15.87161 | 31002 ft | 462 kts | 120° |
| 2026-05-06 15:18 | 44.25067 | 15.94942 | 31001 ft | 462 kts | 120° |
| 2026-05-06 15:19 | 44.21859 | 16.02724 | 31004 ft | 462 kts | 120° |
| 2026-05-06 15:19 | 44.18652 | 16.10482 | 31002 ft | 462 kts | 120° |
| 2026-05-06 15:20 | 44.15438 | 16.18238 | 30999 ft | 462 kts | 120° |
| 2026-05-06 15:20 | 44.12215 | 16.25993 | 31001 ft | 462 kts | 120° |
| 2026-05-06 15:21 | 44.09012 | 16.33683 | 31003 ft | 462 kts | 120° |
| 2026-05-06 15:21 | 44.05778 | 16.41426 | 30999 ft | 462 kts | 120° |
| 2026-05-06 15:22 | 44.02509 | 16.49133 | 31000 ft | 462 kts | 124° |
| 2026-05-06 15:22 | 43.98699 | 16.56316 | 31004 ft | 462 kts | 128° |
| 2026-05-06 15:23 | 43.94734 | 16.63339 | 31001 ft | 462 kts | 128° |
| 2026-05-06 15:23 | 43.90792 | 16.70383 | 31001 ft | 462 kts | 128° |
| 2026-05-06 15:24 | 43.86902 | 16.77411 | 31001 ft | 462 kts | 128° |
| 2026-05-06 15:24 | 43.82993 | 16.84490 | 31003 ft | 462 kts | 128° |
| 2026-05-06 15:25 | 43.79090 | 16.91544 | 31001 ft | 462 kts | 128° |
| 2026-05-06 15:25 | 43.75177 | 16.98595 | 31000 ft | 462 kts | 128° |
| 2026-05-06 15:26 | 43.71259 | 17.05636 | 31002 ft | 462 kts | 128° |
| 2026-05-06 15:26 | 43.67335 | 17.12670 | 31001 ft | 462 kts | 128° |
| 2026-05-06 15:27 | 43.63405 | 17.19698 | 31002 ft | 462 kts | 128° |
| 2026-05-06 15:27 | 43.60138 | 17.25527 | 31001 ft | 462 kts | 128° |
| 2026-05-06 15:28 | 43.55558 | 17.33682 | 31003 ft | 462 kts | 128° |
| 2026-05-06 15:28 | 43.52259 | 17.39541 | 31000 ft | 462 kts | 128° |
| 2026-05-06 15:29 | 43.48345 | 17.46478 | 30994 ft | 458 kts | 128° |
| 2026-05-06 15:29 | 43.44450 | 17.53364 | 30995 ft | 454 kts | 128° |
| 2026-05-06 15:30 | 43.40570 | 17.60207 | 30999 ft | 451 kts | 128° |
| 2026-05-06 15:30 | 43.36711 | 17.66999 | 30999 ft | 449 kts | 128° |
| 2026-05-06 15:31 | 43.32896 | 17.73699 | 31003 ft | 447 kts | 128° |
| 2026-05-06 15:31 | 43.29064 | 17.80416 | 30995 ft | 445 kts | 128° |
| 2026-05-06 15:32 | 43.23277 | 17.90352 | 31002 ft | 443 kts | 130° |
| 2026-05-06 15:32 | 43.19295 | 17.96798 | 31001 ft | 442 kts | 130° |
| 2026-05-06 15:33 | 43.15314 | 18.03221 | 31001 ft | 441 kts | 130° |
| 2026-05-06 15:33 | 43.11380 | 18.09593 | 30999 ft | 441 kts | 130° |
| 2026-05-06 15:34 | 43.07430 | 18.15999 | 31002 ft | 440 kts | 130° |
| 2026-05-06 15:34 | 43.03481 | 18.22394 | 31001 ft | 439 kts | 130° |
| 2026-05-06 15:35 | 42.99538 | 18.28766 | 31003 ft | 439 kts | 130° |
| 2026-05-06 15:35 | 42.95588 | 18.35133 | 30999 ft | 439 kts | 130° |